Torbert, Louisiana
Current Conditions -  °F | °C
As of 9:35 PM on Friday 19 Dec 2014 (Local Time) from KHZR Reporting Station
Drizzle Drizzle  
Wind Chill: 44°   Ceiling: 700
Heat Index: 47°   Visibility: 5mi
Dew Point: 46°   Wind: 7mph
Humidity: 97%   Direction: 80°E
Pressure: 30.09"   Gusts: NA
Location:  30.55°N, 91.49°W
Report Text: KHZR 200335Z AUTO 08006KT 5SM DZ BKN007 BKN025 OVC085 09/08 A3009 RMK AO2 P0001 T00850080
Loading
Personal Weather Stations






























Interactive Weather Map New forecast layout! Learn more

10-Day Weather Forecast

Advertisements
Track Severe Weather on mobile